Atlantic, North Carolina
Current Conditions -  °F | °C
As of 9:56 AM on Sunday 21 Dec 2014 (Local Time) from KNBT Reporting Station
Overcast Overcast  
Wind Chill:   Ceiling: 8000
Heat Index:   Visibility: NA
Dew Point:   Wind: 13mph
Humidity: 68%   Direction: 40°NE
Pressure: 30.32"   Gusts: NA
Location:  34.89°N, 76.34°W
Report Text: KNBT 211456Z AUTO 04011KT BKN080 OVC100 08/02 A3032 RMK AO2 SLP270 6//// T00780022 53017 PNO $
Loading
Personal Weather Stations






























Interactive Weather Map New forecast layout! Learn more

10-Day Weather Forecast

Advertisements
Track Severe Weather on mobile